Time,TemperatureF,DewpointF,PressureIn,WindDirection,WindDirectionDegrees,WindSpeedMPH,WindSpeedGustMPH,Humidity,HourlyPrecipIn,Conditions,Clouds,dailyrainin,SoftwareType,DateUTC
2013-08-14 00:00:00,69.8,65.1,29.86,North,0,0.0,0.0,85,0.00,,OVC,0.00,VWS V14.01,2013-08-14 04:00:00,
2013-08-14 01:00:00,70.0,64.9,29.85,North,0,0.0,0.0,84,0.00,,OVC,0.00,VWS V14.01,2013-08-14 05:00:00,
2013-08-14 02:00:00,70.0,64.6,29.85,North,0,0.0,0.0,83,0.00,,OVC,0.00,VWS V14.01,2013-08-14 06:00:00,
2013-08-14 03:00:00,69.7,64.7,29.85,North,0,0.0,0.0,84,0.00,,OVC,0.00,VWS V14.01,2013-08-14 07:00:00,
2013-08-14 04:00:00,67.9,64.2,29.85,North,0,0.0,0.0,88,0.00,,OVC,0.00,VWS V14.01,2013-08-14 08:00:00,
2013-08-14 05:00:00,67.4,62.7,29.85,North,0,0.0,0.0,85,0.00,,OVC,0.00,VWS V14.01,2013-08-14 09:00:00,
2013-08-14 06:00:00,66.5,61.9,29.87,North,0,0.0,0.0,85,0.00,,OVC,0.00,VWS V14.01,2013-08-14 10:00:00,
2013-08-14 07:00:00,65.9,60.9,29.89,North,0,0.0,0.0,84,0.00,,OVC,0.00,VWS V14.01,2013-08-14 11:00:00,
2013-08-14 08:00:00,65.9,60.6,29.92,North,0,0.0,0.0,83,0.00,,OVC,0.00,VWS V14.01,2013-08-14 12:00:00,
2013-08-14 09:00:00,66.1,60.5,29.92,North,0,0.0,0.0,82,0.00,,OVC,0.00,VWS V14.01,2013-08-14 13:00:00,
2013-08-14 10:00:00,66.6,60.6,29.93,North,0,0.0,0.0,81,0.00,,OVC,0.00,VWS V14.01,2013-08-14 14:00:00,
2013-08-14 11:00:00,66.8,60.4,29.94,North,0,0.0,0.0,80,0.00,,OVC,0.00,VWS V14.01,2013-08-14 15:00:00,
2013-08-14 12:00:00,68.3,61.5,29.95,North,0,0.0,0.0,79,0.00,,OVC,0.00,VWS V14.01,2013-08-14 16:00:00,
2013-08-14 13:00:00,69.6,63.2,29.95,North,0,0.0,0.0,80,0.00,,OVC,0.00,VWS V14.01,2013-08-14 17:00:00,
2013-08-14 14:00:00,74.3,63.1,29.94,North,0,0.0,0.0,68,0.00,,OVC,0.00,VWS V14.01,2013-08-14 18:00:00,
2013-08-14 15:00:00,74.8,60.0,29.93,North,0,0.0,0.0,60,0.00,,OVC,0.00,VWS V14.01,2013-08-14 19:00:00,
2013-08-14 16:00:00,75.7,61.3,29.92,North,0,0.0,0.0,61,0.00,,OVC,0.00,VWS V14.01,2013-08-14 20:00:00,
2013-08-14 17:00:00,73.3,66.8,29.93,North,0,0.0,0.0,80,0.00,,OVC,0.00,VWS V14.01,2013-08-14 21:00:00,
2013-08-14 18:00:00,70.7,66.0,29.94,North,0,0.0,0.0,85,0.00,,OVC,0.00,VWS V14.01,2013-08-14 22:00:00,
2013-08-14 19:00:00,68.8,60.2,29.95,North,0,0.0,0.0,74,0.00,,OVC,0.00,VWS V14.01,2013-08-14 23:00:00,
2013-08-14 20:00:00,67.6,62.6,29.97,North,0,0.0,0.0,84,0.00,,OVC,0.00,VWS V14.01,2013-08-15 00:00:00,
2013-08-14 21:00:00,66.3,63.0,29.98,North,0,0.0,0.0,89,0.00,,OVC,0.00,VWS V14.01,2013-08-15 01:00:00,
2013-08-14 22:00:00,65.8,63.1,30.01,North,0,0.0,0.0,91,0.00,,OVC,0.00,VWS V14.01,2013-08-15 02:00:00,
2013-08-14 23:00:00,64.9,61.3,30.03,North,0,0.0,0.0,88,0.00,,OVC,0.00,VWS V14.01,2013-08-15 03:00:00,